Time;durP1;ratioP1;P1;durP2;ratioP2;P2;SDS_P1;SDS_P2;PMS_P1;PMS_P2;Temp;Humidity;BMP_temperature;BMP_pressure;BME280_temperature;BME280_humidity;BME280_pressure;Samples;Min_cycle;Max_cycle;Signal;HPM_P1;HPM_P2
2023/12/16 00:17:43;;;;;;;;;;;8.20;99.90;;;;;;8428285;28;19927;-70
2023/12/16 00:21:46;;;;;;;;;;;8.10;99.90;;;;;;8437547;28;20448;-70
2023/12/16 00:25:48;;;;;;;;;;;8.20;99.90;;;;;;8431737;28;19924;-70
2023/12/16 00:29:50;;;;;;;;;;;8.20;99.90;;;;;;8434195;28;19947;-70
2023/12/16 00:33:52;;;;;;;;;;;8.20;99.90;;;;;;8446817;28;19947;-70
2023/12/16 00:37:54;;;;;;;;;;;8.20;99.90;;;;;;8436170;28;20036;-70
2023/12/16 00:41:55;;;;;;;;;;;8.20;99.90;;;;;;8435654;28;20275;-70
2023/12/16 00:45:57;;;;;;;;;;;8.20;99.90;;;;;;8425232;28;19931;-70
2023/12/16 00:49:59;;;;;;;;;;;8.20;99.90;;;;;;8449150;28;19975;-70
2023/12/16 00:54:00;;;;;;;;;;;8.20;99.90;;;;;;8435462;28;19924;-70
2023/12/16 00:58:02;;;;;;;;;;;8.20;99.90;;;;;;8423956;28;20398;-70
2023/12/16 01:12:10;;;;;;;;;;;8.10;99.90;;;;;;8433297;28;19969;-70
2023/12/16 01:16:12;;;;;;;;;;;8.10;99.90;;;;;;8426575;28;19924;-70
2023/12/16 01:20:14;;;;;;;;;;;8.10;99.90;;;;;;8437973;28;19923;-70
2023/12/16 01:24:15;;;;;;;;;;;8.00;99.90;;;;;;8423893;28;20383;-70
2023/12/16 01:28:17;;;;;;;;;;;8.00;99.90;;;;;;8439010;28;19931;-70
2023/12/16 01:32:19;;;;;;;;;;;7.90;99.90;;;;;;8437423;28;19939;-70
2023/12/16 01:36:22;;;;;;;;;;;7.80;99.90;;;;;;8463347;27;19931;-70
2023/12/16 01:40:23;;;;;;;;;;;7.70;99.90;;;;;;8430750;28;20387;-70
2023/12/16 01:44:25;;;;;;;;;;;7.60;99.90;;;;;;8428124;28;19967;-70
2023/12/16 01:48:27;;;;;;;;;;;7.60;99.90;;;;;;8437033;28;19979;-70
2023/12/16 01:52:29;;;;;;;;;;;7.50;99.90;;;;;;8433589;28;19974;-70
2023/12/16 01:56:32;;;;;;;;;;;7.50;99.90;;;;;;8425121;28;19924;-70
2023/12/16 02:00:33;;;;;;;;;;;7.50;99.90;;;;;;8427105;28;19967;-70
2023/12/16 02:04:37;;;;;;;;;;;7.50;99.90;;;;;;8426726;28;20371;-70
2023/12/16 02:08:39;;;;;;;;;;;7.40;99.90;;;;;;8436233;28;19978;-70
2023/12/16 02:12:42;;;;;;;;;;;7.40;99.90;;;;;;8424324;28;19931;-70
2023/12/16 02:16:44;;;;;;;;;;;7.30;99.90;;;;;;8433400;28;19924;-70
2023/12/16 02:20:49;;;;;;;;;;;7.30;99.90;;;;;;8432954;28;19939;-70
2023/12/16 02:24:51;;;;;;;;;;;7.30;99.90;;;;;;8433562;28;19924;-70
2023/12/16 02:28:53;;;;;;;;;;;7.20;99.90;;;;;;8432708;28;19924;-70
2023/12/16 02:32:56;;;;;;;;;;;7.10;99.90;;;;;;8437241;28;19952;-70
2023/12/16 02:37:02;;;;;;;;;;;7.00;99.90;;;;;;8422540;28;20077;-70
2023/12/16 02:41:04;;;;;;;;;;;6.90;99.90;;;;;;8433977;28;20363;-70
2023/12/16 02:45:06;;;;;;;;;;;6.90;99.90;;;;;;8443153;28;20290;-70
2023/12/16 02:49:07;;;;;;;;;;;6.90;99.90;;;;;;8441755;28;20414;-70
2023/12/16 02:53:09;;;;;;;;;;;6.80;99.90;;;;;;8438441;28;20390;-70
2023/12/16 02:57:11;;;;;;;;;;;6.80;99.90;;;;;;8439541;28;19928;-70
2023/12/16 03:16:16;;;;;;;;;;;6.80;99.90;;;;;;8436011;28;19927;-70
2023/12/16 03:20:55;;;;;;;;;;;6.80;99.90;;;;;;8435808;28;19928;-70
2023/12/16 03:24:57;;;;;;;;;;;6.80;99.90;;;;;;8440015;28;19982;-70
2023/12/16 03:34:02;;;;;;;;;;;6.90;99.90;;;;;;8436146;28;19960;-70
2023/12/16 03:38:04;;;;;;;;;;;7.00;99.90;;;;;;8431724;28;19958;-70
2023/12/16 03:42:06;;;;;;;;;;;7.00;99.90;;;;;;8431859;28;20287;-70
2023/12/16 03:46:08;;;;;;;;;;;7.00;99.90;;;;;;8430567;28;19965;-70
2023/12/16 03:50:10;;;;;;;;;;;7.00;99.90;;;;;;8440163;28;19951;-70
2023/12/16 03:54:11;;;;;;;;;;;7.00;99.90;;;;;;8436991;28;19927;-70
2023/12/16 03:58:13;;;;;;;;;;;7.10;99.90;;;;;;8432972;28;19967;-70
2023/12/16 04:02:16;;;;;;;;;;;7.10;99.90;;;;;;8436969;28;20391;-70
2023/12/16 04:06:17;;;;;;;;;;;7.10;99.90;;;;;;8433726;28;20414;-70
2023/12/16 04:10:20;;;;;;;;;;;7.00;99.90;;;;;;8438772;28;19968;-70
2023/12/16 04:14:21;;;;;;;;;;;7.00;99.90;;;;;;8438852;28;19994;-70
2023/12/16 04:18:23;;;;;;;;;;;7.00;99.90;;;;;;8447760;28;20370;-70
2023/12/16 04:22:25;;;;;;;;;;;7.00;99.90;;;;;;8434207;28;19928;-70
2023/12/16 04:26:27;;;;;;;;;;;7.00;99.90;;;;;;8428934;28;20292;-70
2023/12/16 04:30:28;;;;;;;;;;;7.00;99.90;;;;;;8441313;28;19932;-70
2023/12/16 04:34:30;;;;;;;;;;;7.00;99.90;;;;;;8427593;28;19924;-70
2023/12/16 04:38:32;;;;;;;;;;;6.90;99.90;;;;;;8429704;28;20272;-70
2023/12/16 04:42:33;;;;;;;;;;;6.90;99.90;;;;;;8434706;28;19958;-70
2023/12/16 04:46:35;;;;;;;;;;;6.80;99.90;;;;;;8432852;28;19924;-70
2023/12/16 04:50:37;;;;;;;;;;;6.80;99.90;;;;;;8436844;28;19931;-70
2023/12/16 04:54:38;;;;;;;;;;;6.70;99.90;;;;;;8427618;28;19986;-70
2023/12/16 04:58:40;;;;;;;;;;;6.70;99.90;;;;;;8446744;28;19924;-70
2023/12/16 05:02:42;;;;;;;;;;;6.60;99.90;;;;;;8432174;28;20622;-70
2023/12/16 05:06:43;;;;;;;;;;;6.50;99.90;;;;;;8428239;28;20405;-70
2023/12/16 05:10:47;;;;;;;;;;;6.40;99.90;;;;;;8442915;28;19928;-70
2023/12/16 05:14:49;;;;;;;;;;;6.40;99.90;;;;;;8435945;28;19935;-70
2023/12/16 05:18:51;;;;;;;;;;;6.30;99.90;;;;;;8424848;28;19924;-70
2023/12/16 05:22:52;;;;;;;;;;;6.30;99.90;;;;;;8430350;28;19954;-70
2023/12/16 05:36:39;;;;;;;;;;;6.20;99.90;;;;;;8432872;28;19977;-70
2023/12/16 05:40:41;;;;;;;;;;;6.10;99.90;;;;;;8415920;28;19924;-70
2023/12/16 05:44:43;;;;;;;;;;;6.10;99.90;;;;;;8425716;28;20425;-70
2023/12/16 05:48:44;;;;;;;;;;;6.10;99.90;;;;;;8415999;28;19938;-70
2023/12/16 05:52:46;;;;;;;;;;;6.10;99.90;;;;;;8421692;28;19924;-70
2023/12/16 05:56:48;;;;;;;;;;;6.00;99.90;;;;;;8448169;27;19924;-70
2023/12/16 06:00:50;;;;;;;;;;;6.00;99.90;;;;;;8420511;28;19995;-70
2023/12/16 06:04:52;;;;;;;;;;;6.00;99.90;;;;;;8438408;28;19993;-70
2023/12/16 06:08:53;;;;;;;;;;;6.00;99.90;;;;;;8428454;28;19924;-70
2023/12/16 06:12:55;;;;;;;;;;;6.00;99.90;;;;;;8431349;28;20324;-70
2023/12/16 06:16:57;;;;;;;;;;;6.00;99.90;;;;;;8435755;28;20379;-70
2023/12/16 06:20:59;;;;;;;;;;;6.00;99.90;;;;;;8425220;28;19928;-70
2023/12/16 06:25:01;;;;;;;;;;;6.00;99.90;;;;;;8422742;28;19955;-70
2023/12/16 06:29:02;;;;;;;;;;;5.90;99.90;;;;;;8421368;28;19932;-70
2023/12/16 06:33:04;;;;;;;;;;;5.90;99.90;;;;;;8423879;28;19938;-70
2023/12/16 06:37:06;;;;;;;;;;;5.90;99.90;;;;;;8431108;28;19924;-70
2023/12/16 06:41:07;;;;;;;;;;;6.00;99.90;;;;;;8420362;28;19927;-70
2023/12/16 06:45:09;;;;;;;;;;;6.00;99.90;;;;;;8424780;28;19924;-70
2023/12/16 06:49:11;;;;;;;;;;;6.00;99.90;;;;;;8423382;28;19982;-70
2023/12/16 07:08:23;;;;;;;;;;;6.00;99.90;;;;;;8437795;28;19927;-70
2023/12/16 07:12:24;;;;;;;;;;;6.00;99.90;;;;;;8443339;28;19927;-70
2023/12/16 07:16:26;;;;;;;;;;;5.90;99.90;;;;;;8455858;28;19932;-70
2023/12/16 07:20:28;;;;;;;;;;;5.90;99.90;;;;;;8445268;28;19924;-70
2023/12/16 07:24:29;;;;;;;;;;;5.90;99.90;;;;;;8434667;28;19931;-70
2023/12/16 07:28:31;;;;;;;;;;;6.00;99.90;;;;;;8441030;28;19927;-70
2023/12/16 07:32:33;;;;;;;;;;;6.00;99.90;;;;;;8436048;28;19932;-70
2023/12/16 07:36:34;;;;;;;;;;;6.00;99.90;;;;;;8436060;27;20320;-70
2023/12/16 07:40:36;;;;;;;;;;;6.00;99.90;;;;;;8425257;28;20421;-70
2023/12/16 07:44:38;;;;;;;;;;;6.10;99.90;;;;;;8431656;28;19963;-70
2023/12/16 07:48:40;;;;;;;;;;;6.10;99.90;;;;;;8432587;28;19981;-70
2023/12/16 07:52:44;;;;;;;;;;;6.10;99.90;;;;;;8436343;28;21365;-70
2023/12/16 07:56:46;;;;;;;;;;;6.10;99.90;;;;;;8432217;28;19974;-70
2023/12/16 08:00:48;;;;;;;;;;;6.10;99.90;;;;;;8427387;28;20034;-70
2023/12/16 08:04:52;;;;;;;;;;;6.10;99.90;;;;;;8426484;28;19970;-70
2023/12/16 08:08:53;;;;;;;;;;;6.10;99.90;;;;;;8439662;28;19968;-70
2023/12/16 08:12:55;;;;;;;;;;;6.10;99.90;;;;;;8428338;28;19930;-70
2023/12/16 08:16:57;;;;;;;;;;;6.20;99.90;;;;;;8434214;28;20280;-70
2023/12/16 08:20:58;;;;;;;;;;;6.30;99.90;;;;;;8427423;28;20291;-69
2023/12/16 08:25:00;;;;;;;;;;;6.40;99.90;;;;;;8440354;28;20307;-70
2023/12/16 08:29:02;;;;;;;;;;;6.40;99.90;;;;;;8428361;28;19930;-70
2023/12/16 08:33:04;;;;;;;;;;;6.50;99.90;;;;;;8427584;28;19924;-70
2023/12/16 08:37:06;;;;;;;;;;;6.60;99.90;;;;;;8430315;28;22499;-70
2023/12/16 08:41:10;;;;;;;;;;;6.80;99.90;;;;;;8415893;28;19968;-70
2023/12/16 08:45:13;;;;;;;;;;;6.90;99.90;;;;;;8414596;28;19924;-70
2023/12/16 08:49:14;;;;;;;;;;;7.00;99.90;;;;;;8414212;28;20391;-70
2023/12/16 08:53:16;;;;;;;;;;;7.10;99.90;;;;;;8409794;28;19924;-70
2023/12/16 08:57:18;;;;;;;;;;;7.20;99.90;;;;;;8417217;28;19928;-70
2023/12/16 09:01:19;;;;;;;;;;;7.30;99.90;;;;;;8415573;28;19936;-70
2023/12/16 09:05:21;;;;;;;;;;;7.40;99.90;;;;;;8419796;28;19932;-69
2023/12/16 09:09:23;;;;;;;;;;;7.50;99.90;;;;;;8442290;28;19927;-70
2023/12/16 09:13:25;;;;;;;;;;;7.60;99.90;;;;;;8434191;28;19969;-70
2023/12/16 09:22:36;;;;;;;;;;;7.70;99.90;;;;;;8432428;28;19919;-70
2023/12/16 09:26:37;;;;;;;;;;;7.80;99.90;;;;;;8434834;28;19932;-70
2023/12/16 09:30:39;;;;;;;;;;;7.80;99.90;;;;;;8431129;28;19924;-70
2023/12/16 09:39:45;;;;;;;;;;;7.90;99.90;;;;;;8443529;28;20022;-70
2023/12/16 09:43:49;;;;;;;;;;;8.00;99.90;;;;;;8431330;28;19931;-70
2023/12/16 09:47:51;;;;;;;;;;;8.00;99.90;;;;;;8435238;28;19960;-70
2023/12/16 09:51:53;;;;;;;;;;;8.10;99.90;;;;;;8431115;28;19928;-70
2023/12/16 09:55:54;;;;;;;;;;;8.10;99.90;;;;;;8440434;28;20333;-70
2023/12/16 09:59:57;;;;;;;;;;;8.20;99.90;;;;;;8444119;28;19924;-70
2023/12/16 10:03:58;;;;;;;;;;;8.20;99.90;;;;;;8437429;28;19931;-70
2023/12/16 10:08:01;;;;;;;;;;;8.30;99.90;;;;;;8428107;28;19939;-70
2023/12/16 10:12:08;;;;;;;;;;;8.40;99.90;;;;;;8433174;28;19928;-70
2023/12/16 10:16:15;;;;;;;;;;;8.40;99.90;;;;;;8424810;28;19931;-70
2023/12/16 10:20:17;;;;;;;;;;;8.50;99.90;;;;;;8432502;28;19931;-70
2023/12/16 10:24:19;;;;;;;;;;;8.60;99.90;;;;;;8430509;28;19932;-70
2023/12/16 10:28:20;;;;;;;;;;;8.60;99.90;;;;;;8429066;28;20303;-70
2023/12/16 10:32:22;;;;;;;;;;;8.70;99.90;;;;;;8436661;28;19924;-70
2023/12/16 10:36:24;;;;;;;;;;;8.70;99.90;;;;;;8424669;28;19925;-70
2023/12/16 10:40:26;;;;;;;;;;;8.80;99.90;;;;;;8424894;28;20386;-70
2023/12/16 10:44:28;;;;;;;;;;;8.80;99.90;;;;;;8439769;28;20371;-70
2023/12/16 10:48:34;;;;;;;;;;;8.90;99.90;;;;;;8429144;28;19924;-70
2023/12/16 10:52:41;;;;;;;;;;;8.90;99.90;;;;;;8426161;28;19924;-70
2023/12/16 10:56:48;;;;;;;;;;;8.90;99.90;;;;;;8435563;28;19958;-70
2023/12/16 11:00:51;;;;;;;;;;;8.90;99.90;;;;;;8435987;28;19924;-70
2023/12/16 11:15:02;;;;;;;;;;;8.90;99.90;;;;;;8440367;28;20034;-70
2023/12/16 11:34:44;;;;;;;;;;;8.90;99.90;;;;;;8423291;28;19927;-70
2023/12/16 11:38:49;;;;;;;;;;;8.90;99.90;;;;;;8425557;28;20387;-70
2023/12/16 11:42:54;;;;;;;;;;;8.90;99.90;;;;;;8423928;28;19928;-70
2023/12/16 11:46:58;;;;;;;;;;;8.90;99.90;;;;;;8430529;28;19968;-70
2023/12/16 11:51:00;;;;;;;;;;;8.90;99.90;;;;;;8416371;28;19974;-70
2023/12/16 11:55:02;;;;;;;;;;;8.90;99.90;;;;;;8411930;28;19934;-70
2023/12/16 11:59:04;;;;;;;;;;;8.90;99.90;;;;;;8414510;28;20348;-70
2023/12/16 12:03:06;;;;;;;;;;;8.90;99.90;;;;;;8411076;28;19978;-70
2023/12/16 12:07:09;;;;;;;;;;;9.00;99.90;;;;;;8420991;28;19932;-69
2023/12/16 12:11:11;;;;;;;;;;;9.00;99.90;;;;;;8411638;28;19930;-70
2023/12/16 12:15:13;;;;;;;;;;;9.00;99.90;;;;;;8417814;28;19924;-70
2023/12/16 12:19:17;;;;;;;;;;;9.00;99.90;;;;;;8422031;28;19985;-70
2023/12/16 12:23:19;;;;;;;;;;;9.00;99.90;;;;;;8422692;28;19924;-70
2023/12/16 12:27:20;;;;;;;;;;;9.00;99.90;;;;;;8438159;27;20217;-70
2023/12/16 12:31:22;;;;;;;;;;;9.00;99.90;;;;;;8410943;28;19924;-70
2023/12/16 12:35:24;;;;;;;;;;;9.00;99.90;;;;;;8419946;28;19943;-70
2023/12/16 12:39:26;;;;;;;;;;;9.00;99.90;;;;;;8430206;27;20672;-70
2023/12/16 12:43:29;;;;;;;;;;;9.10;99.90;;;;;;8413139;28;19924;-70
2023/12/16 12:47:32;;;;;;;;;;;9.10;99.90;;;;;;8413548;28;19924;-70
2023/12/16 12:51:34;;;;;;;;;;;9.10;99.90;;;;;;8429480;28;19951;-70
2023/12/16 12:55:36;;;;;;;;;;;9.10;99.90;;;;;;8426071;28;20351;-70
2023/12/16 12:59:37;;;;;;;;;;;9.10;99.90;;;;;;8427350;28;20329;-70
2023/12/16 13:03:59;;;;;;;;;;;9.10;99.90;;;;;;8433620;28;19959;-70
2023/12/16 13:18:08;;;;;;;;;;;9.10;99.90;;;;;;8422400;28;19923;-70
2023/12/16 13:22:10;;;;;;;;;;;9.20;99.90;;;;;;8422800;28;19971;-70
2023/12/16 13:26:12;;;;;;;;;;;9.20;99.90;;;;;;8419130;28;19927;-70
2023/12/16 13:30:14;;;;;;;;;;;9.20;99.90;;;;;;8424841;28;19931;-70
2023/12/16 13:34:16;;;;;;;;;;;9.20;99.90;;;;;;8420830;28;20333;-70
2023/12/16 13:38:18;;;;;;;;;;;9.20;99.90;;;;;;8422231;28;20044;-70
2023/12/16 13:42:20;;;;;;;;;;;9.20;99.90;;;;;;8413856;28;20264;-70
2023/12/16 13:46:21;;;;;;;;;;;9.20;99.90;;;;;;8412287;28;19983;-70
2023/12/16 13:50:23;;;;;;;;;;;9.20;99.90;;;;;;8419240;28;19925;-70
2023/12/16 13:54:25;;;;;;;;;;;9.20;99.90;;;;;;8419725;28;20029;-70
2023/12/16 13:58:27;;;;;;;;;;;9.30;99.90;;;;;;8415301;28;19979;-70
2023/12/16 14:02:29;;;;;;;;;;;9.30;99.90;;;;;;8414310;28;20291;-70
2023/12/16 14:06:31;;;;;;;;;;;9.30;99.90;;;;;;8418894;28;19978;-70
2023/12/16 14:10:35;;;;;;;;;;;9.30;99.90;;;;;;8408361;28;20391;-70
2023/12/16 14:14:37;;;;;;;;;;;9.30;99.90;;;;;;8413393;28;20437;-70
2023/12/16 14:18:39;;;;;;;;;;;9.40;99.90;;;;;;8422169;28;20356;-70
2023/12/16 14:22:40;;;;;;;;;;;9.40;99.90;;;;;;8430070;28;19928;-70
2023/12/16 14:26:42;;;;;;;;;;;9.40;99.90;;;;;;8436079;28;19925;-70
2023/12/16 14:30:44;;;;;;;;;;;9.40;99.90;;;;;;8465485;27;20043;-70
2023/12/16 14:34:46;;;;;;;;;;;9.40;99.90;;;;;;8438762;28;20445;-70
2023/12/16 14:38:47;;;;;;;;;;;9.50;99.90;;;;;;8448429;28;20390;-70
2023/12/16 14:42:49;;;;;;;;;;;9.50;99.90;;;;;;8438483;28;19925;-70
2023/12/16 14:46:53;;;;;;;;;;;9.50;99.90;;;;;;8420196;28;19931;-70
2023/12/16 14:50:55;;;;;;;;;;;9.50;99.90;;;;;;8417258;28;20267;-70
2023/12/16 14:54:58;;;;;;;;;;;9.50;99.90;;;;;;8428582;28;19924;-70
2023/12/16 14:59:00;;;;;;;;;;;9.50;99.90;;;;;;8422608;28;20375;-70
2023/12/16 15:03:06;;;;;;;;;;;9.60;99.90;;;;;;8434547;28;19924;-70
2023/12/16 15:07:09;;;;;;;;;;;9.50;99.90;;;;;;8418993;28;19960;-70
2023/12/16 15:11:11;;;;;;;;;;;9.50;99.90;;;;;;8409012;28;19930;-70
2023/12/16 15:15:13;;;;;;;;;;;9.50;99.90;;;;;;8414875;28;20027;-70
2023/12/16 15:19:36;;;;;;;;;;;9.50;99.90;;;;;;8411448;28;20291;-70
2023/12/16 15:23:38;;;;;;;;;;;9.50;99.90;;;;;;8414240;28;19924;-70
2023/12/16 15:27:40;;;;;;;;;;;9.50;99.90;;;;;;8429588;28;20302;-70
2023/12/16 15:31:46;;;;;;;;;;;9.50;99.90;;;;;;8413754;28;19977;-70
2023/12/16 15:35:47;;;;;;;;;;;9.50;99.90;;;;;;8400166;28;19924;-70
2023/12/16 15:39:49;;;;;;;;;;;9.50;99.90;;;;;;8435467;28;20390;-70
2023/12/16 15:43:51;;;;;;;;;;;9.50;99.90;;;;;;8437200;28;20033;-70
2023/12/16 15:47:53;;;;;;;;;;;9.60;99.90;;;;;;8431132;28;19939;-70
2023/12/16 15:51:55;;;;;;;;;;;9.60;99.90;;;;;;8428086;28;19928;-70
2023/12/16 15:55:57;;;;;;;;;;;9.60;99.90;;;;;;8431602;28;19924;-70
2023/12/16 16:00:00;;;;;;;;;;;9.60;99.90;;;;;;8422407;28;19977;-70
2023/12/16 16:04:04;;;;;;;;;;;9.60;99.90;;;;;;8431615;28;19934;-70
2023/12/16 16:08:07;;;;;;;;;;;9.60;99.90;;;;;;8418685;28;20343;-70
2023/12/16 16:12:08;;;;;;;;;;;9.60;99.90;;;;;;8430878;28;19923;-70
2023/12/16 16:16:10;;;;;;;;;;;9.60;99.90;;;;;;8423159;28;19930;-70
2023/12/16 16:20:12;;;;;;;;;;;9.60;99.90;;;;;;8418163;28;19977;-70
2023/12/16 16:24:14;;;;;;;;;;;9.60;99.90;;;;;;8434613;28;20193;-70
2023/12/16 16:28:17;;;;;;;;;;;9.60;99.90;;;;;;8435140;28;20355;-70
2023/12/16 16:32:18;;;;;;;;;;;9.60;99.90;;;;;;8430147;28;19924;-70
2023/12/16 16:36:20;;;;;;;;;;;9.70;99.90;;;;;;8444665;28;19924;-70
2023/12/16 16:40:22;;;;;;;;;;;9.70;99.90;;;;;;8437844;28;20108;-70
2023/12/16 17:04:37;;;;;;;;;;;9.80;99.90;;;;;;8424277;28;19939;-70
2023/12/16 17:08:39;;;;;;;;;;;9.80;99.90;;;;;;8434710;28;19924;-70
2023/12/16 17:12:40;;;;;;;;;;;9.80;99.90;;;;;;8416538;28;19924;-70
2023/12/16 17:16:42;;;;;;;;;;;9.80;99.90;;;;;;8427097;28;20314;-70
2023/12/16 17:20:44;;;;;;;;;;;9.80;99.90;;;;;;8451573;27;19946;-70
2023/12/16 17:24:47;;;;;;;;;;;9.90;99.90;;;;;;8432278;28;20367;-70
2023/12/16 17:49:03;;;;;;;;;;;10.00;99.90;;;;;;8416524;28;19974;-70
2023/12/16 17:53:05;;;;;;;;;;;10.00;99.90;;;;;;8414412;28;19939;-70
2023/12/16 17:57:08;;;;;;;;;;;10.00;99.90;;;;;;8412896;28;19928;-70
2023/12/16 18:01:10;;;;;;;;;;;10.00;99.90;;;;;;8412101;28;20279;-70
2023/12/16 18:05:11;;;;;;;;;;;10.00;99.90;;;;;;8409651;28;20118;-70
2023/12/16 18:09:13;;;;;;;;;;;10.00;99.90;;;;;;8415540;28;19978;-70
2023/12/16 18:13:15;;;;;;;;;;;10.00;99.90;;;;;;8413375;28;19987;-70
2023/12/16 18:17:17;;;;;;;;;;;10.00;99.90;;;;;;8414117;28;19925;-70
2023/12/16 18:21:19;;;;;;;;;;;10.00;99.90;;;;;;8420909;28;19931;-70
2023/12/16 18:25:20;;;;;;;;;;;10.00;99.90;;;;;;8430728;28;19928;-70
2023/12/16 18:29:22;;;;;;;;;;;10.00;99.90;;;;;;8435245;28;20375;-70
2023/12/16 18:43:31;;;;;;;;;;;10.10;99.90;;;;;;8418968;28;19919;-70
2023/12/16 18:47:33;;;;;;;;;;;10.10;99.90;;;;;;8423565;28;19924;-70
2023/12/16 18:51:35;;;;;;;;;;;10.10;99.90;;;;;;8418673;28;19935;-70
2023/12/16 18:55:36;;;;;;;;;;;10.10;99.90;;;;;;8425827;28;19924;-70
2023/12/16 18:59:38;;;;;;;;;;;10.10;99.90;;;;;;8423837;28;19924;-70
2023/12/16 19:03:40;;;;;;;;;;;10.10;99.90;;;;;;8431993;28;19928;-70
2023/12/16 19:07:42;;;;;;;;;;;10.20;99.90;;;;;;8425675;28;19924;-70
2023/12/16 19:11:44;;;;;;;;;;;10.20;99.90;;;;;;8415336;28;19924;-70
2023/12/16 19:15:45;;;;;;;;;;;10.20;99.90;;;;;;8426427;28;19966;-70
2023/12/16 19:19:49;;;;;;;;;;;10.20;99.90;;;;;;8433839;28;20003;-70
2023/12/16 19:23:50;;;;;;;;;;;10.20;99.90;;;;;;8432861;28;19978;-70
2023/12/16 19:27:52;;;;;;;;;;;10.20;99.90;;;;;;8438762;28;20325;-70
2023/12/16 19:31:54;;;;;;;;;;;10.20;99.90;;;;;;8444503;28;19924;-70
2023/12/16 19:35:56;;;;;;;;;;;10.20;99.90;;;;;;8439248;28;19928;-70
2023/12/16 19:39:57;;;;;;;;;;;10.20;99.90;;;;;;8438780;28;19947;-70
2023/12/16 19:43:59;;;;;;;;;;;10.20;99.90;;;;;;8430050;28;19962;-70
2023/12/16 19:48:01;;;;;;;;;;;10.20;99.90;;;;;;8436332;28;19924;-70
2023/12/16 20:07:13;;;;;;;;;;;10.20;99.90;;;;;;8432629;28;19922;-70
2023/12/16 20:11:15;;;;;;;;;;;10.30;99.90;;;;;;8431301;28;19924;-70
2023/12/16 20:15:16;;;;;;;;;;;10.30;99.90;;;;;;8434641;28;20283;-70
2023/12/16 20:19:18;;;;;;;;;;;10.30;99.90;;;;;;8434152;28;19935;-70
2023/12/16 20:23:20;;;;;;;;;;;10.30;99.90;;;;;;8430345;28;19930;-70
2023/12/16 20:27:22;;;;;;;;;;;10.30;99.90;;;;;;8446841;28;19928;-70
2023/12/16 20:31:24;;;;;;;;;;;10.20;99.90;;;;;;8443789;28;19930;-70
2023/12/16 20:55:39;;;;;;;;;;;10.20;99.90;;;;;;8421560;28;19927;-70
2023/12/16 20:59:41;;;;;;;;;;;10.20;99.90;;;;;;8433033;28;19924;-70
2023/12/16 21:03:43;;;;;;;;;;;10.20;99.90;;;;;;8445365;28;20314;-70
2023/12/16 21:07:44;;;;;;;;;;;10.20;99.90;;;;;;8418899;28;20270;-70
2023/12/16 21:11:46;;;;;;;;;;;10.20;99.90;;;;;;8425761;28;19924;-70
2023/12/16 21:15:48;;;;;;;;;;;10.20;99.90;;;;;;8441574;28;20383;-70
2023/12/16 21:19:50;;;;;;;;;;;10.20;99.90;;;;;;8418844;28;20338;-70
2023/12/16 21:23:51;;;;;;;;;;;10.20;99.90;;;;;;8428134;28;19928;-70
2023/12/16 21:27:53;;;;;;;;;;;10.20;99.90;;;;;;8423154;28;20387;-70
2023/12/16 21:37:10;;;;;;;;;;;10.20;99.90;;;;;;8413760;28;19922;-69
2023/12/16 21:41:12;;;;;;;;;;;10.30;99.90;;;;;;8417876;28;19924;-70
2023/12/16 21:45:14;;;;;;;;;;;10.30;99.90;;;;;;8444993;28;19992;-70
2023/12/16 22:04:26;;;;;;;;;;;10.30;99.90;;;;;;8439341;28;19919;-70
2023/12/16 22:08:28;;;;;;;;;;;10.20;99.90;;;;;;8430566;28;19924;-70
2023/12/16 22:43:58;;;;;;;;;;;10.20;99.90;;;;;;8410959;28;19927;-70
2023/12/16 22:48:00;;;;;;;;;;;10.20;99.90;;;;;;8426426;28;20433;-70
2023/12/16 22:52:02;;;;;;;;;;;10.20;99.90;;;;;;8436483;28;20439;-70
2023/12/16 22:56:04;;;;;;;;;;;10.20;99.90;;;;;;8422412;28;19963;-70
2023/12/16 23:00:25;;;;;;;;;;;10.20;99.90;;;;;;8429027;28;19969;-70
2023/12/16 23:04:27;;;;;;;;;;;10.20;99.90;;;;;;8435832;28;19939;-70
2023/12/16 23:08:28;;;;;;;;;;;10.20;99.90;;;;;;8432667;28;19943;-70
2023/12/16 23:12:30;;;;;;;;;;;10.20;99.90;;;;;;8426733;28;20579;-70
2023/12/16 23:16:32;;;;;;;;;;;10.20;99.90;;;;;;8433180;28;19950;-70
2023/12/16 23:20:33;;;;;;;;;;;10.20;99.90;;;;;;8432976;28;19931;-70
2023/12/16 23:24:35;;;;;;;;;;;10.20;99.90;;;;;;8429459;28;19928;-70
2023/12/16 23:28:37;;;;;;;;;;;10.20;99.90;;;;;;8423246;28;19963;-70
2023/12/16 23:48:10;;;;;;;;;;;10.20;99.90;;;;;;8422102;28;19931;-70
2023/12/16 23:52:12;;;;;;;;;;;10.20;99.90;;;;;;8438753;28;19978;-70
2023/12/16 23:56:15;;;;;;;;;;;10.20;99.90;;;;;;8436466;28;20378;-70
